Classifiche di sempre
Migliori tempi personali validi di team tra tutti gli eventi e le stagioni. Ogni team compare una sola volta per divisione.
Cerca per nome e apri la pagina in cui è classificato questo record di divisione.
137,494 team in classifica
| Pos. | Pos. AG | Team | Nazionalità | Categoria età | TempoMiglior tempo | Distacco |
|---|---|---|---|---|---|---|
| 8926 | #113 | Viktoria Bockfeld & Doreen Scheler-ZschauerGER · W 30-39 · AG #113 | GER | W 30-39 | 1:11:48 | +18:27 |
| 8927 | #674 | Eilidh Campbell & Julia HillGBR · W 16-24 · AG #674 | GBR | W 16-24 | 1:11:48 | +18:27 |
| 8928 | #3094 | Natalie Leask & Jessica LogueGBR · W 30-34 · AG #3094 | GBR | W 30-34 | 1:11:48 | +18:27 |
| 8929 | #1553 | Millie Purton & Blanca RoemgensGBR · W 25-29 · AG #1553 | GBR | W 25-29 | 1:11:48 | +18:27 |
| 8930 | #3095 | Emily Storey & Hannah StoneGBR · W 30-34 · AG #3095 | GBR | W 30-34 | 1:11:48 | +18:27 |
| 8931 | #675 | elin van block & jamie hollandGBR · W 16-24 · AG #675 | GBR | W 16-24 | 1:11:48 | +18:27 |
| 8932 | #3096 | Amy Preece Jones & Emily ParkerGBR · W 30-34 · AG #3096 | GBR | W 30-34 | 1:11:48 | +18:27 |
| 8933 | #676 | Femke Laoh & Isa Heijne Den BakNED · W 16-24 · AG #676 | NED | W 16-24 | 1:11:49 | +18:28 |
| 8934 | #822 | Jessica Black & Alexandra BirkettUSA · W 35-39 · AG #822 | USA | W 35-39 | 1:11:49 | +18:28 |
| 8935 | #1554 | Clara Frost & Lindsey WileyUSA · W 25-29 · AG #1554 | USA | W 25-29 | 1:11:49 | +18:28 |
| 8936 | #1555 | Elizabeth Castellon & Marina GuerreroUSA · W 25-29 · AG #1555 | USA | W 25-29 | 1:11:49 | +18:28 |
| 8937 | #3097 | Léa Fetscher & Aurélie ToquartFRA · W 30-34 · AG #3097 | FRA | W 30-34 | 1:11:49 | +18:28 |
| 8938 | #677 | Tia Jupp & Bella EwensAUS · W 16-24 · AG #677 | AUS | W 16-24 | 1:11:49 | +18:28 |
| 8939 | #678 | Jessica Murdocca & Kaitlyn MurdoccaAUS · W 16-24 · AG #678 | AUS | W 16-24 | 1:11:49 | +18:28 |
| 8940 | #679 | Ella Adami & Lucy NicolaiAUS · W 16-24 · AG #679 | AUS | W 16-24 | 1:11:49 | +18:28 |
| 8941 | #3098 | Nena Van Veldhoven & Indira MulderNED · W 30-34 · AG #3098 | NED | W 30-34 | 1:11:49 | +18:28 |
| 8942 | #1556 | Alicia Porter & Olivia Fox-PorrittGBR · W 25-29 · AG #1556 | GBR | W 25-29 | 1:11:49 | +18:28 |
| 8943 | #3099 | Gemma Desplán Salinas & Agathe LoiseleurW 30-34 · AG #3099 | -- | W 30-34 | 1:11:49 | +18:28 |
| 8944 | #3100 | Ann-Christin Gyzenski & Jannika SchnabelGER · W 30-34 · AG #3100 | GER | W 30-34 | 1:11:49 | +18:28 |
| 8945 | #1557 | Amélie Bourgeois & Elyjah RouxelFRA · W 25-29 · AG #1557 | FRA | W 25-29 | 1:11:49 | +18:28 |
| 8946 | #681 | Kyndall Gray & Grace GomezUSA · W 16-24 · AG #681 | USA | W 16-24 | 1:11:49 | +18:28 |
| 8947 | #825 | 晓烨 邱 & 沁芝 范CHN · W 35-39 · AG #825 | CHN | W 35-39 | 1:11:49 | +18:28 |
| 8948 | #682 | Kerrie O Neill & Lauren MaloneIRL · W 16-24 · AG #682 | IRL | W 16-24 | 1:11:49 | +18:28 |
| 8949 | #1559 | Jessica Moritz & Vanessa HauserW 25-29 · AG #1559 | -- | W 25-29 | 1:11:49 | +18:28 |
| 8950 | #1560 | Sara Damery & Cate AlveyW 25-29 · AG #1560 | -- | W 25-29 | 1:11:49 | +18:28 |
Pagina 358 di 5,500